Terminal Aerodrome Forecast
Issued by NWS North Platte, NE

Home | Current Version | Previous Version | Text Only | Print | Product List | Glossary On
Versions: 1 2 3 4 5 6 7 8 9 10 11 12 13 14 15 16 17 18 19
000
FTUS43 KLBF 261100
TAFVTN
TAF
KVTN 261127Z 2612/2712 33022G29KT P6SM OVC015
     FM261700 33011G18KT P6SM SCT025 OVC150
     FM261900 34009KT P6SM SCT030 BKN150
     FM270300 11006KT P6SM BKN070=

USA.gov is the U.S. government's official web portal to all federal, state and local government web resources and services.